Philadelphia, Pennsylvania
Traffic Map
Current Weather Conditions
Philadelphia, Pennsylvania
Overcast
Overcast
49°
Feels Like: 45°
Wind Chill: 45° Ceiling: 2700
Heat Index: 49° Visibility: 10mi
Dew Point: 39° Wind: 8mph
Humidity: 69% Direction: 50° (NE)
Pressure: 30.13in Gusts: 0mph
Raw Report DataKPHL 300254Z 05007KT 10SM OVC027 09/04 A3013 RMK AO2 SLP203 T00940039 50013
Traffic Incident Summary
Active as of:
Severity:
Category:
InformationThere was an issue retrieving the traffic information for this location. Please try a different location or try again shortly.
Advertisements
Track Severe Weather on mobile